Terminal Aerodrome Forecast
Issued by NWS Pueblo, CO

Home | Current Version | Previous Version | Text Only | Print | Product List | Glossary On
Versions: 1 2 3 4 5 6 7 8 9 10 11 12 13 14 15 16 17 18 19 20 21 22 23 24 25 26 27 28
000
FTUS45 KPUB 292335
TAFPUB
TAF
KPUB 292335Z 3000/3024 03015G25KT P6SM SCT070 SCT200
     FM300200 33008KT P6SM SCT200
     FM300400 VRB06KT P6SM FEW200
     FM301200 29007KT P6SM SCT200
     FM301900 13009KT P6SM BKN200=

USA.gov is the U.S. government's official web portal to all federal, state and local government web resources and services.